Federacion, Argentina
Current Conditions -  °F | °C
As of 3:00 PM on Tuesday 21 Oct 2014 (Local Time) from SUSO Reporting Station
Clear Clear  
Wind Chill: 82°   Ceiling: Unl
Heat Index: 82°   Visibility: 6mi
Dew Point: 57°   Wind: 7mph
Humidity: 42%   Direction: 70°ENE
Pressure: 30.06"   Gusts: NA
Location:  31°S, 57.9°W
Report Text: SUSO 211800Z 07006KT CAVOK 28/14 Q1018
Loading
Personal Weather Stations






























Interactive Weather Map
Tropical Storm Tracking
New forecast layout! Learn more

10-Day Weather Forecast

Advertisements
Track Severe Weather on mobile